createdAt,value
2023-02-14T00:01:16.397Z,5.7749999999999995
2023-02-14T00:04:18.670Z,5.2625
2023-02-14T00:07:16.842Z,5.5875
2023-02-14T00:11:16.256Z,7.05
2023-02-14T00:31:16.712Z,4.7625
2023-02-14T00:34:17.504Z,4.3125
2023-02-14T00:37:16.758Z,4.2875
2023-02-14T00:41:19.593Z,5.125
2023-02-14T00:44:16.464Z,5.487500000000001
2023-02-14T00:47:16.602Z,4.3
2023-02-14T00:51:17.518Z,5.0875
2023-02-14T00:54:16.767Z,3.7875
2023-02-14T00:57:16.653Z,4.3875
2023-02-14T01:01:17.497Z,4.8375
2023-02-14T01:04:16.815Z,3.825
2023-02-14T01:07:16.839Z,5.45
2023-02-14T01:11:19.394Z,5.2375
2023-02-14T01:14:16.942Z,5.237500000000001
2023-02-14T01:17:16.934Z,5.1875
2023-02-14T01:21:21.617Z,4.9875
2023-02-14T01:24:16.966Z,3.7125
2023-02-14T01:27:16.999Z,3.45
2023-02-14T01:31:19.448Z,5.0874999999999995
2023-02-14T01:34:16.158Z,4.6125
2023-02-14T01:37:16.296Z,4.5625
2023-02-14T01:41:16.305Z,4.7625
2023-02-14T01:45:24.995Z,4.1
2023-02-14T01:47:17.045Z,3.6125
2023-02-14T01:51:18.149Z,3.85
2023-02-14T01:54:18.586Z,4.074999999999999
2023-02-14T01:57:19.708Z,3.75
2023-02-14T02:01:17.698Z,3.9250000000000003
2023-02-14T02:04:21.913Z,3.375
2023-02-14T02:07:20.899Z,3.8499999999999996
2023-02-14T02:11:15.977Z,4.275
2023-02-14T02:14:19.798Z,4
2023-02-14T02:17:27.125Z,4.275
2023-02-14T02:31:37.376Z,3.8125
2023-02-14T02:41:30.283Z,4.2125
2023-02-14T02:44:25.041Z,4.125
2023-02-14T02:47:24.560Z,4.0875
2023-02-14T03:01:21.226Z,4.449999999999999
2023-02-14T03:05:22.821Z,3.9
2023-02-14T03:07:38.669Z,3.425
2023-02-14T03:11:16.829Z,3.9
2023-02-14T03:14:23.711Z,3.9875
2023-02-14T03:17:24.328Z,3.9
2023-02-14T03:21:27.957Z,5.075
2023-02-14T03:24:25.530Z,3.4375
2023-02-14T03:27:24.887Z,3.5374999999999996
2023-02-14T03:31:23.650Z,4.225
2023-02-14T03:34:24.067Z,5
2023-02-14T03:37:22.319Z,3.75
2023-02-14T03:41:21.754Z,4.8625
2023-02-14T03:44:20.315Z,4.4
2023-02-14T03:47:19.889Z,5.137499999999999
2023-02-14T03:51:19.060Z,4.675000000000001
2023-02-14T03:54:19.730Z,3.075
2023-02-14T03:57:23.415Z,4.9125
2023-02-14T04:01:22.124Z,4.112500000000001
2023-02-14T04:04:20.608Z,3.9875
2023-02-14T04:07:18.811Z,5.4
2023-02-14T04:11:16.327Z,6.3500000000000005
2023-02-14T04:14:17.141Z,5.025
2023-02-14T04:21:16.801Z,4.699999999999999
2023-02-14T04:24:17.017Z,4.4375
2023-02-14T04:27:16.915Z,4.2625
2023-02-14T04:31:17.976Z,5.0375
2023-02-14T04:34:17.191Z,3.5374999999999996
2023-02-14T04:37:19.214Z,5
2023-02-14T04:41:15.998Z,3.8499999999999996
2023-02-14T04:44:16.402Z,3.7375000000000003
2023-02-14T04:47:16.603Z,4.4
2023-02-14T04:51:16.267Z,5.0125
2023-02-14T04:54:16.642Z,3.575
2023-02-14T04:57:16.551Z,3.7249999999999996
2023-02-14T05:01:16.200Z,4.2375
2023-02-14T05:04:16.477Z,4.025
2023-02-14T05:07:16.816Z,6.3125
2023-02-14T05:11:17.188Z,4.3875
2023-02-14T05:14:17.180Z,4.1625
2023-02-14T05:17:18.728Z,3.825
2023-02-14T05:21:17.309Z,4.375
2023-02-14T05:24:18.177Z,4.2125
2023-02-14T05:27:17.603Z,4.3125
2023-02-14T05:31:18.048Z,6.075
2023-02-14T05:34:17.764Z,3.775
2023-02-14T05:37:17.468Z,4.8125
2023-02-14T05:41:16.830Z,6.225
2023-02-14T05:44:17.176Z,4.35
2023-02-14T05:47:17.265Z,4.0375000000000005
2023-02-14T05:51:16.643Z,5.449999999999999
2023-02-14T05:54:18.614Z,3.4625
2023-02-14T05:57:18.521Z,3.975
2023-02-14T06:01:17.519Z,3.425
2023-02-14T06:04:17.108Z,4.1875
2023-02-14T06:07:17.449Z,4.4875
2023-02-14T06:11:18.048Z,4.25
2023-02-14T06:14:16.988Z,3.6374999999999997
2023-02-14T06:17:17.079Z,3.8000000000000003
2023-02-14T06:21:18.268Z,3.8874999999999997
2023-02-14T06:24:16.979Z,3.9124999999999996
2023-02-14T06:27:17.049Z,3.425
2023-02-14T06:31:16.586Z,4.075
2023-02-14T06:34:17.003Z,3.2
2023-02-14T06:37:16.193Z,4.4375
2023-02-14T06:41:19.342Z,4.9
2023-02-14T06:44:16.453Z,4.55
2023-02-14T06:47:18.141Z,4.0625
2023-02-14T06:51:16.447Z,5
2023-02-14T06:54:16.714Z,3.7875
2023-02-14T06:57:17.078Z,4.7124999999999995
2023-02-14T07:01:17.220Z,3.7624999999999997
2023-02-14T07:04:18.766Z,4.325
2023-02-14T07:07:17.524Z,4.5375
2023-02-14T15:51:20.385Z,5.699999999999999
2023-02-14T15:54:22.104Z,5.3125
2023-02-14T15:57:23.921Z,5.6875
2023-02-14T16:01:20.311Z,5.725
2023-02-14T16:04:23.209Z,5.050000000000001
2023-02-14T16:07:23.332Z,5.975
2023-02-14T16:11:29.270Z,5.05
2023-02-14T16:14:29.013Z,5.137499999999999
2023-02-14T16:17:31.666Z,5.1625
2023-02-14T16:21:19.435Z,5.4625
2023-02-14T16:24:17.872Z,6.325
2023-02-14T16:27:17.082Z,7.625
2023-02-14T16:31:16.823Z,6.7875
2023-02-14T16:34:16.973Z,5.887499999999999
2023-02-14T16:37:21.330Z,6
2023-02-14T16:41:18.678Z,6.3875
2023-02-14T16:44:18.407Z,7.9375
2023-02-14T16:47:19.656Z,8.5875
2023-02-14T16:51:16.678Z,7.0249999999999995
2023-02-14T16:54:21.311Z,7.3125
2023-02-14T16:57:19.968Z,7.5249999999999995
2023-02-14T17:01:16.467Z,6.925
2023-02-14T17:04:17.212Z,6.3375
2023-02-14T17:07:17.028Z,7.6375
2023-02-14T17:11:16.803Z,8.25
2023-02-14T17:14:21.232Z,7.387499999999999
2023-02-14T17:17:17.302Z,8.6125
2023-02-14T17:21:22.091Z,8.1875
2023-02-14T17:24:17.006Z,10.175
2023-02-14T17:27:17.029Z,13.45
2023-02-14T17:31:16.936Z,10.7125
2023-02-14T17:34:18.285Z,8.9375
2023-02-14T17:37:19.683Z,8.5
2023-02-14T17:41:19.829Z,8.287500000000001
2023-02-14T17:44:16.668Z,6.9625
2023-02-14T17:47:18.899Z,7.687500000000001
2023-02-14T17:51:17.999Z,12.787500000000001
2023-02-14T17:54:18.394Z,17.725
2023-02-14T17:57:17.076Z,15.9375
2023-02-14T18:01:19.140Z,13.225
2023-02-14T18:04:18.581Z,12.9375
2023-02-14T18:07:17.054Z,13.037500000000001
2023-02-14T18:11:19.052Z,13.899999999999999
2023-02-14T18:14:17.247Z,11.425
2023-02-14T18:17:16.787Z,9.6125
2023-02-14T18:21:18.376Z,9.25
2023-02-14T18:24:17.174Z,8.025
2023-02-14T18:27:16.980Z,8.6375
2023-02-14T18:31:17.405Z,8.8875
2023-02-14T18:34:16.717Z,6.8625
2023-02-14T18:37:17.127Z,7.4125
2023-02-14T18:41:18.786Z,9.45
2023-02-14T18:44:16.822Z,10.1625
2023-02-14T18:47:16.748Z,9.825
2023-02-14T18:51:18.967Z,9.8625
2023-02-14T18:54:17.318Z,8.149999999999999
2023-02-14T18:57:17.133Z,8.675
2023-02-14T19:01:18.711Z,8.8625
2023-02-14T19:04:18.213Z,9.2625
2023-02-14T19:07:17.114Z,18.25
2023-02-14T19:11:19.839Z,44.8125
2023-02-14T19:14:17.939Z,37.85
2023-02-14T19:17:17.266Z,26.65
2023-02-14T19:21:18.613Z,9.6375
2023-02-14T19:24:18.139Z,8.625
2023-02-14T19:27:16.958Z,11.8375
2023-02-14T19:31:16.878Z,17.725
2023-02-14T19:34:19.523Z,15.912499999999998
2023-02-14T19:37:17.024Z,11.3
2023-02-14T19:41:19.103Z,12.725
2023-02-14T19:44:18.160Z,10.825
2023-02-14T19:47:31.018Z,9.787500000000001
2023-02-14T19:51:20.503Z,9.587499999999999
2023-02-14T19:54:18.387Z,11.875
2023-02-14T19:57:18.380Z,9.1875
2023-02-14T20:01:24.128Z,10.212499999999999
2023-02-14T20:04:19.269Z,11.3125
2023-02-14T20:07:17.869Z,9.425
2023-02-14T20:11:30.641Z,9.4
2023-02-14T20:14:19.720Z,7.5125
2023-02-14T20:17:17.854Z,7.45
2023-02-14T20:21:19.768Z,10.287500000000001
2023-02-14T20:24:20.057Z,8.3
2023-02-14T20:27:17.216Z,8.025
2023-02-14T20:31:17.153Z,8.4625
2023-02-14T20:34:18.285Z,8.6375
2023-02-14T20:37:18.575Z,9.025
2023-02-14T20:41:19.207Z,12.1375
2023-02-14T20:44:20.847Z,11.7125
2023-02-14T20:47:18.561Z,14.8375
2023-02-14T20:51:20.497Z,11.162500000000001
2023-02-14T20:54:20.892Z,8.9875
2023-02-14T20:57:18.461Z,11.05
2023-02-14T21:01:18.546Z,9.975000000000001
2023-02-14T21:04:17.449Z,9.399999999999999
2023-02-14T21:07:17.072Z,8.7625
2023-02-14T21:11:19.141Z,10.274999999999999
2023-02-14T21:14:18.097Z,9.0625
2023-02-14T21:17:17.897Z,10.0625
2023-02-14T21:21:20.076Z,27.3
2023-02-14T21:24:17.552Z,12.6125
2023-02-14T21:27:17.453Z,8.4875
2023-02-14T21:31:22.176Z,7.2124999999999995
2023-02-14T21:34:19.834Z,7.85
2023-02-14T21:37:20.141Z,6.4875
2023-02-14T21:41:20.851Z,7.175000000000001
2023-02-14T21:45:55.638Z,6.725
2023-02-14T21:47:16.700Z,8.5625
2023-02-14T21:51:16.467Z,7.8125
2023-02-14T21:54:16.779Z,8.1375
2023-02-14T21:57:16.647Z,8.475
2023-02-14T22:01:18.962Z,9.5
2023-02-14T22:04:16.670Z,7.637499999999999
2023-02-14T22:07:16.666Z,7.9375
2023-02-14T22:11:16.174Z,6.5874999999999995
2023-02-14T22:14:16.651Z,4.95
2023-02-14T22:17:16.437Z,5.7
2023-02-14T22:21:18.368Z,6.637499999999999
2023-02-14T22:24:16.304Z,6.887499999999999
2023-02-14T22:27:16.940Z,6.225
2023-02-14T22:31:18.259Z,5.45
2023-02-14T22:34:18.167Z,4.275
2023-02-14T22:37:17.090Z,6.0875
2023-02-14T22:41:18.456Z,5.3625
2023-02-14T22:44:16.806Z,4.85
2023-02-14T22:47:16.860Z,5.5125
2023-02-14T22:51:20.531Z,6.575
2023-02-14T22:54:17.624Z,5.8625
2023-02-14T22:57:19.542Z,5.85
2023-02-14T23:01:18.931Z,6.3875
2023-02-14T23:04:19.398Z,5.8500000000000005
2023-02-14T23:07:17.157Z,5.9875
2023-02-14T23:11:19.148Z,6.5875
2023-02-14T23:22:23.431Z,7.6000000000000005
2023-02-14T23:24:16.693Z,6.925
2023-02-14T23:31:18.128Z,6.225
2023-02-14T23:34:18.102Z,4.5875
2023-02-14T23:37:17.790Z,8.85
2023-02-14T23:41:49.580Z,7.012499999999999
2023-02-14T23:44:19.831Z,5.2125
2023-02-14T23:47:17.403Z,5.575
2023-02-14T23:51:16.733Z,4.6625000000000005
2023-02-14T23:54:18.112Z,5.4125
2023-02-14T23:57:16.842Z,5.575
